createdAt,value
2019-04-10T15:34:56.725Z,21.00
2019-04-10T15:40:13.560Z,21.90
2019-04-10T15:45:07.244Z,21.20
2019-04-10T15:50:11.275Z,21.50
2019-04-10T15:55:15.283Z,21.40
2019-04-10T16:00:19.243Z,21.30
2019-04-10T16:05:23.673Z,21.20
2019-04-10T16:10:29.351Z,21.20
2019-04-10T16:15:40.882Z,21.20
2019-04-10T16:20:47.215Z,21.20
2019-04-10T16:25:52.798Z,21.10
2019-04-10T16:30:57.264Z,21.10
2019-04-10T16:36:01.091Z,21.20
2019-04-10T16:41:05.534Z,21.20
2019-04-10T16:46:09.357Z,21.10
2019-04-10T16:51:14.139Z,21.10
2019-04-10T16:56:18.251Z,21.10
2019-04-10T17:01:22.551Z,21.20
2019-04-10T17:06:26.515Z,21.10
2019-04-10T17:11:30.811Z,21.10
2019-04-10T17:16:35.704Z,21.10
2019-04-10T17:21:40.478Z,21.10
2019-04-10T17:26:44.593Z,21.10
2019-04-10T17:31:48.859Z,21.20
2019-04-10T17:36:53.543Z,21.20
2019-04-10T17:41:57.874Z,21.10
2019-04-10T17:47:02.050Z,21.10
2019-04-10T17:52:06.302Z,21.20
2019-04-10T17:57:10.720Z,21.30
2019-04-10T18:02:26.451Z,21.30
2019-04-10T18:07:20.151Z,21.30
2019-04-10T18:12:24.751Z,25.20
2019-04-10T18:17:29.155Z,22.60
2019-04-10T18:22:34.328Z,21.80
2019-04-10T18:27:38.680Z,21.40
2019-04-10T18:32:42.646Z,21.30
2019-04-10T18:37:47.695Z,21.20
2019-04-10T18:42:54.683Z,21.20
2019-04-10T18:47:58.529Z,21.30
2019-04-10T18:53:03.628Z,21.20
2019-04-10T18:58:09.611Z,21.20
2019-04-10T19:03:31.787Z,21.20
2019-04-10T19:08:37.650Z,21.30
2019-04-10T19:13:42.453Z,21.20
2019-04-10T19:18:47.899Z,21.20
2019-04-10T19:23:52.988Z,21.00
2019-04-10T19:28:59.116Z,20.90
2019-04-10T19:34:03.885Z,20.80
2019-04-10T19:39:08.344Z,20.70
2019-04-10T19:44:12.844Z,20.70
2019-04-10T19:49:16.926Z,20.70
2019-04-10T19:54:21.947Z,20.60
2019-04-10T19:59:27.003Z,20.60
2019-04-10T20:04:31.172Z,20.60
2019-04-10T20:09:34.996Z,20.60
2019-04-10T20:14:38.890Z,20.50
2019-04-10T20:19:42.651Z,20.50
2019-04-10T20:24:47.212Z,20.50
2019-04-10T20:29:51.541Z,20.50
2019-04-10T20:34:55.903Z,20.50
2019-04-10T20:40:01.222Z,20.40
2019-04-10T20:45:07.353Z,20.40
2019-04-10T20:50:11.999Z,20.40
2019-04-10T20:55:17.407Z,20.30
2019-04-10T21:00:23.106Z,20.30
2019-04-10T21:05:28.187Z,20.30
2019-04-10T21:10:33.271Z,20.30
2019-04-10T21:15:37.614Z,20.30
2019-04-10T21:20:43.098Z,20.30
2019-04-10T21:25:47.677Z,20.30
2019-04-10T21:31:02.358Z,20.20
2019-04-10T21:36:07.172Z,20.20
2019-04-10T21:41:12.534Z,20.20
2019-04-10T21:46:16.601Z,20.20
2019-04-10T21:51:20.751Z,20.10
2019-04-10T21:56:24.570Z,20.10
2019-04-10T22:01:28.459Z,20.10
2019-04-10T22:06:40.211Z,20.10
2019-04-10T22:11:51.719Z,20.10
2019-04-10T22:16:55.543Z,20.10
2019-04-10T22:21:59.684Z,20.10
2019-04-10T22:27:04.986Z,20.10
2019-04-10T22:32:09.176Z,20.10
2019-04-10T22:37:15.435Z,20.00
2019-04-10T22:42:19.235Z,20.00
2019-04-10T22:47:23.425Z,20.00
2019-04-10T22:52:28.185Z,20.00
2019-04-10T22:57:32.008Z,19.90
2019-04-10T23:02:36.142Z,19.90
2019-04-10T23:07:39.966Z,19.90
2019-04-10T23:12:52.265Z,19.90
2019-04-10T23:17:49.156Z,19.90
2019-04-10T23:22:52.983Z,19.90
2019-04-10T23:27:56.812Z,19.80
2019-04-10T23:33:01.519Z,19.80
2019-04-10T23:38:06.945Z,19.80
2019-04-10T23:43:14.043Z,19.80
2019-04-10T23:48:17.017Z,19.80
2019-04-10T23:53:22.524Z,19.80
2019-04-10T23:58:27.770Z,19.80
